Time;durP1;ratioP1;P1;durP2;ratioP2;P2;SDS_P1;SDS_P2;PMS_P1;PMS_P2;Temp;Humidity;BMP_temperature;BMP_pressure;BME280_temperature;BME280_humidity;BME280_pressure;Samples;Min_cycle;Max_cycle;Signal;HPM_P1;HPM_P2
2021/01/18 00:00:21;;;;;;;36.30;23.17;;;-5.10;99.90;;;-8.35;100.00;100942.31;4964830;28;101081;-62
2021/01/18 00:02:49;;;;;;;39.87;25.87;;;-5.40;99.90;;;-8.35;100.00;100937.13;4965035;28;100045;-65
2021/01/18 00:05:15;;;;;;;41.40;24.57;;;-5.20;99.90;;;-8.20;100.00;100935.97;4965303;28;100341;-63
2021/01/18 00:07:44;;;;;;;38.57;24.30;;;-5.40;99.90;;;-8.22;100.00;100935.16;4965866;28;100045;-62
2021/01/18 00:10:16;;;;;;;36.63;23.47;;;-5.50;99.90;;;-8.09;100.00;100932.31;4964643;28;101141;-62
2021/01/18 00:12:47;;;;;;;35.73;23.27;;;-5.60;99.90;;;-7.97;100.00;100928.66;4964485;28;100973;-62
2021/01/18 00:15:15;;;;;;;39.23;24.83;;;-5.50;99.90;;;-8.26;100.00;100929.13;4965201;28;100438;-63
2021/01/18 00:17:42;;;;;;;36.27;24.23;;;-5.60;99.90;;;-8.39;100.00;100925.91;4965153;28;99973;-62
2021/01/18 00:20:11;;;;;;;36.90;24.90;;;-4.20;99.90;;;-8.42;100.00;100923.38;4964861;28;101427;-63
2021/01/18 00:22:38;;;;;;;34.77;22.57;;;-5.30;99.90;;;-8.42;100.00;100917.34;4964274;28;100640;-62
2021/01/18 00:25:09;;;;;;;37.50;22.83;;;-4.90;99.90;;;-8.41;100.00;100921.66;4964557;28;100053;-63
2021/01/18 00:27:35;;;;;;;38.03;22.10;;;-5.40;99.90;;;-8.19;100.00;100928.19;4955381;28;100091;-62
2021/01/18 00:30:06;;;;;;;40.90;25.27;;;-5.50;99.90;;;-8.21;100.00;100922.16;4964292;28;101326;-62
2021/01/18 00:32:32;;;;;;;36.80;24.10;;;-5.40;99.90;;;-8.39;100.00;100923.31;4965234;28;100653;-62
2021/01/18 00:34:58;;;;;;;36.53;23.30;;;-5.50;99.90;;;-8.53;100.00;100916.66;4979241;28;100249;-65
2021/01/18 00:37:26;;;;;;;33.73;22.50;;;-4.90;99.90;;;-8.58;100.00;100910.66;4964815;28;100276;-62
2021/01/18 00:39:52;;;;;;;31.57;21.10;;;-5.30;99.90;;;-8.72;100.00;100910.88;4963675;28;101580;-64
2021/01/18 00:42:19;;;;;;;30.00;19.87;;;-4.60;99.90;;;-8.69;100.00;100918.59;4964730;28;100202;-63
2021/01/18 00:44:46;;;;;;;31.63;21.20;;;-5.40;99.90;;;-8.61;100.00;100921.06;4963160;28;100142;-64
2021/01/18 00:47:13;;;;;;;29.60;19.87;;;-5.50;99.90;;;-8.66;100.00;100922.91;4964624;28;100423;-64
2021/01/18 00:49:39;;;;;;;30.90;20.30;;;-5.40;99.90;;;-8.51;100.00;100920.06;4964550;28;101123;-64
2021/01/18 00:52:07;;;;;;;30.23;20.03;;;-5.60;99.90;;;-8.58;100.00;100915.84;4964133;28;100913;-64
2021/01/18 00:54:34;;;;;;;30.53;20.33;;;-5.30;99.90;;;-8.40;100.00;100913.81;4979030;28;100062;-65
2021/01/18 00:57:13;;;;;;;29.83;19.10;;;-5.30;99.90;;;-8.52;100.00;100914.00;4979788;28;100476;-60
2021/01/18 00:59:42;;;;;;;33.83;20.17;;;-5.40;99.90;;;-8.56;100.00;100911.50;4978702;28;102730;-62
2021/01/18 01:02:10;;;;;;;28.67;19.67;;;-5.20;99.90;;;-8.77;100.00;100904.88;4978807;28;102373;-62
2021/01/18 01:04:38;;;;;;;30.90;20.53;;;-5.30;99.90;;;-8.65;100.00;100906.47;4979160;28;100277;-62
2021/01/18 01:07:04;;;;;;;28.67;19.50;;;-5.30;99.90;;;-8.73;100.00;100902.22;4964717;28;100444;-63
2021/01/18 01:09:31;;;;;;;28.10;17.70;;;-4.60;99.90;;;-8.68;100.00;100901.31;4964726;28;101400;-63
2021/01/18 01:11:58;;;;;;;32.43;20.90;;;-5.40;99.90;;;-8.33;100.00;100900.75;4963493;28;101094;-63
2021/01/18 01:14:24;;;;;;;33.47;18.90;;;-5.40;99.90;;;-8.54;100.00;100894.19;4964692;28;100413;-63
2021/01/18 01:16:51;;;;;;;29.73;18.97;;;-4.70;99.90;;;-8.79;100.00;100893.69;4965192;28;99998;-63
2021/01/18 01:19:17;;;;;;;26.07;17.70;;;-5.40;99.90;;;-8.92;100.00;100886.97;4967373;28;100711;-65
2021/01/18 01:21:49;;;;;;;28.37;18.63;;;-5.40;99.90;;;-9.00;100.00;100891.38;4982311;28;100306;-63
2021/01/18 01:24:18;;;;;;;27.40;17.67;;;-5.10;99.90;;;-9.02;100.00;100887.97;4967422;28;100192;-65
2021/01/18 01:26:45;;;;;;;23.13;16.50;;;-5.50;99.90;;;-8.95;100.00;100890.44;4967441;28;100262;-63
2021/01/18 01:29:12;;;;;;;23.63;16.37;;;-5.50;99.90;;;-8.87;100.00;100892.91;4967696;28;101013;-63
2021/01/18 01:31:38;;;;;;;26.53;17.30;;;-5.60;99.90;;;-8.84;100.00;100891.16;4967572;28;100858;-62
2021/01/18 01:34:05;;;;;;;28.03;17.30;;;-5.70;99.90;;;-8.99;100.00;100888.78;4967298;28;100060;-63
2021/01/18 01:36:32;;;;;;;26.47;17.20;;;-5.70;99.90;;;-9.09;100.00;100877.66;4966998;28;100135;-63
2021/01/18 01:38:58;;;;;;;24.60;16.87;;;-5.40;99.90;;;-9.15;100.00;100880.34;4967517;28;101137;-62
2021/01/18 01:41:25;;;;;;;24.77;17.13;;;-5.80;99.90;;;-9.17;100.00;100873.47;4927601;28;101384;-63
2021/01/18 01:43:51;;;;;;;25.43;17.50;;;-5.10;99.90;;;-9.21;100.00;100876.97;4928547;28;100236;-62
2021/01/18 01:46:20;;;;;;;26.40;17.37;;;-4.80;99.90;;;-9.23;100.00;100866.63;4928266;28;100274;-64
2021/01/18 01:48:46;;;;;;;25.27;17.23;;;-5.90;99.90;;;-9.19;100.00;100859.69;4927820;28;101258;-65
2021/01/18 01:51:13;;;;;;;25.53;18.07;;;-6.00;99.90;;;-9.24;100.00;100861.47;4927397;28;101124;-64
2021/01/18 01:53:40;;;;;;;27.27;16.77;;;-5.50;99.90;;;-9.29;100.00;100866.72;4927756;28;100293;-64
2021/01/18 01:56:08;;;;;;;24.00;16.93;;;-5.00;99.90;;;-9.23;100.00;100864.03;4927459;28;100293;-65
2021/01/18 01:58:35;;;;;;;26.73;16.83;;;-6.10;99.90;;;-9.30;100.00;100866.75;4927625;28;100690;-62
2021/01/18 02:01:04;;;;;;;29.07;19.60;;;-6.10;99.90;;;-9.28;100.00;100863.25;4927014;28;101020;-65
2021/01/18 02:03:40;;;;;;;25.63;17.60;;;-6.20;99.90;;;-9.35;100.00;100865.94;4927358;28;100453;-65
2021/01/18 02:06:08;;;;;;;23.57;16.80;;;-6.20;99.90;;;-9.35;100.00;100863.34;4927338;28;100077;-63
2021/01/18 02:08:35;;;;;;;28.00;17.67;;;-6.20;99.90;;;-9.35;100.00;100869.38;4927370;28;100733;-63
2021/01/18 02:11:02;;;;;;;27.33;18.57;;;-6.00;99.90;;;-9.44;100.00;100865.19;4926708;28;100067;-65
2021/01/18 02:13:43;;;;;;;25.17;16.33;;;-6.20;99.90;;;-9.29;100.00;100873.63;4927571;28;100149;-65
2021/01/18 02:16:21;;;;;;;26.20;18.03;;;-6.30;99.90;;;-9.06;100.00;100874.19;4927243;28;100454;-63
2021/01/18 02:19:27;;;;;;;27.13;17.37;;;-6.30;99.90;;;-8.91;100.00;100878.31;4907367;28;100766;-65
2021/01/18 02:22:45;;;;;;;26.97;17.30;;;-6.10;99.90;;;-9.07;100.00;100868.16;4923086;28;100481;-63
2021/01/18 02:25:30;;;;;;;25.20;17.27;;;-6.10;99.90;;;-8.73;100.00;100865.91;4884640;28;100352;-65
2021/01/18 02:28:16;;;;;;;27.37;17.93;;;-6.10;99.90;;;-9.01;100.00;100859.41;4922452;28;100002;-63
2021/01/18 02:31:25;;;;;;;25.53;17.97;;;-6.10;99.90;;;-9.16;100.00;100857.06;4927462;28;101486;-63
2021/01/18 02:34:31;;;;;;;27.67;18.27;;;-6.00;99.90;;;-9.34;100.00;100854.69;4925886;28;100232;-63
2021/01/18 02:37:28;;;;;;;24.13;17.10;;;-6.00;99.90;;;-9.45;100.00;100852.25;4926087;28;100332;-64
2021/01/18 02:40:06;;;;;;;27.13;17.43;;;-5.90;99.90;;;-9.43;100.00;100855.69;4942628;28;100068;-63
2021/01/18 02:42:41;;;;;;;27.17;18.13;;;-5.90;99.90;;;-9.41;100.00;100860.84;4966035;28;101671;-64
2021/01/18 02:45:11;;;;;;;27.43;18.00;;;-6.00;99.90;;;-9.43;100.00;100845.31;4966811;28;100774;-63
2021/01/18 02:47:40;;;;;;;29.83;18.43;;;-5.90;99.90;;;-9.33;100.00;100853.81;4966759;28;100237;-64
2021/01/18 02:50:14;;;;;;;27.33;18.83;;;-5.80;99.90;;;-9.36;100.00;100846.94;4966099;28;100168;-64
2021/01/18 02:52:42;;;;;;;26.03;17.43;;;-5.90;99.90;;;-9.31;100.00;100855.53;4966825;28;100950;-64
2021/01/18 02:55:10;;;;;;;27.03;17.80;;;-5.90;99.90;;;-9.16;100.00;100849.28;4966126;28;100769;-63
2021/01/18 02:57:41;;;;;;;26.83;17.93;;;-5.30;99.90;;;-9.01;100.00;100853.38;4966628;28;99981;-64
2021/01/18 03:00:14;;;;;;;26.77;18.40;;;-5.80;99.90;;;-8.54;100.00;100848.34;4966350;28;100445;-63
2021/01/18 03:02:52;;;;;;;28.13;18.73;;;-5.80;99.90;;;-8.75;100.00;100848.66;4966012;28;100278;-63
2021/01/18 03:05:35;;;;;;;28.67;18.83;;;-5.80;99.90;;;-8.88;100.00;100842.78;4966435;28;100642;-63
2021/01/18 03:08:24;;;;;;;25.97;17.97;;;-5.60;99.90;;;-8.93;100.00;100851.53;4963762;28;100213;-65
2021/01/18 03:11:01;;;;;;;24.83;17.77;;;-5.60;99.90;;;-8.89;100.00;100841.06;4966044;28;100137;-64
2021/01/18 03:13:33;;;;;;;28.43;18.87;;;-4.70;99.90;;;-8.97;100.00;100845.53;4965086;28;101529;-63
2021/01/18 03:16:11;;;;;;;26.30;17.23;;;-4.90;99.90;;;-8.97;100.00;100849.84;4980330;28;101314;-64
2021/01/18 03:18:39;;;;;;;25.27;16.67;;;-4.50;99.90;;;-8.76;100.00;100845.19;4965910;28;100515;-64
2021/01/18 03:21:06;;;;;;;28.23;17.23;;;-5.30;99.90;;;-8.82;100.00;100844.44;4966675;28;100127;-64
2021/01/18 03:23:37;;;;;;;27.80;17.10;;;-5.30;99.90;;;-8.82;100.00;100836.66;4965463;28;100618;-64
2021/01/18 03:26:04;;;;;;;27.13;17.47;;;-5.20;99.90;;;-8.86;100.00;100827.22;4965334;28;100472;-63
2021/01/18 03:28:30;;;;;;;25.43;17.30;;;-5.20;99.90;;;-8.86;100.00;100832.41;4966217;28;101180;-64
2021/01/18 03:30:57;;;;;;;28.33;17.87;;;-5.20;99.90;;;-8.75;100.00;100835.69;4966428;28;99924;-63
2021/01/18 03:33:24;;;;;;;25.43;17.20;;;-4.40;99.90;;;-8.62;100.00;100828.56;4966251;28;100753;-63
2021/01/18 03:35:51;;;;;;;23.80;16.70;;;-5.20;99.90;;;-8.66;100.00;100832.09;4964621;28;101050;-64
2021/01/18 03:38:18;;;;;;;25.00;17.07;;;-5.20;99.90;;;-8.57;100.00;100837.13;4965714;28;100238;-64
2021/01/18 03:40:46;;;;;;;27.40;17.20;;;-5.30;99.90;;;-8.56;100.00;100837.13;4964991;28;100271;-63
2021/01/18 03:43:13;;;;;;;26.13;17.17;;;-5.30;99.90;;;-8.49;100.00;100843.03;4965321;28;101827;-63
2021/01/18 03:45:42;;;;;;;26.07;17.00;;;-4.70;99.90;;;-8.46;100.00;100841.25;4965409;28;101596;-63
2021/01/18 03:48:12;;;;;;;26.60;16.80;;;-5.20;99.90;;;-8.49;100.00;100838.72;4945019;28;99963;-63
2021/01/18 03:50:41;;;;;;;24.77;16.07;;;-5.20;99.90;;;-8.44;100.00;100831.72;4952837;28;99900;-64
2021/01/18 03:53:09;;;;;;;23.07;17.07;;;-4.50;99.90;;;-8.28;100.00;100834.03;4965334;28;101389;-64
2021/01/18 03:55:35;;;;;;;25.07;16.83;;;-4.50;99.90;;;-8.18;100.00;100832.97;4965191;28;101031;-64
2021/01/18 03:58:03;;;;;;;26.17;16.93;;;-4.80;99.90;;;-8.09;100.00;100825.88;4965570;28;100379;-64
2021/01/18 04:00:31;;;;;;;24.07;16.00;;;-5.00;99.90;;;-7.93;100.00;100835.97;4965161;28;100075;-63
2021/01/18 04:02:58;;;;;;;26.37;18.00;;;-4.90;99.90;;;-8.02;100.00;100829.19;4964434;28;101096;-63
2021/01/18 04:05:26;;;;;;;25.00;16.97;;;-5.00;99.90;;;-7.97;100.00;100836.03;4964333;28;101181;-63
2021/01/18 04:07:53;;;;;;;23.30;15.73;;;-4.80;99.90;;;-7.58;100.00;100825.75;4965634;28;100282;-63
2021/01/18 04:10:22;;;;;;;26.47;17.90;;;-4.80;99.90;;;-7.50;100.00;100826.44;4964640;28;100170;-63
2021/01/18 04:12:51;;;;;;;24.10;16.67;;;-4.80;99.90;;;-7.28;100.00;100822.47;4964852;28;101029;-63
2021/01/18 04:15:20;;;;;;;27.80;18.20;;;-4.60;99.90;;;-7.45;100.00;100819.41;4964563;28;100903;-63
2021/01/18 04:17:48;;;;;;;26.73;18.30;;;-4.50;99.90;;;-7.53;100.00;100810.03;4965616;28;100467;-63
2021/01/18 04:20:16;;;;;;;24.43;16.43;;;-4.30;99.90;;;-7.63;100.00;100814.56;4966075;28;100313;-63
2021/01/18 04:22:50;;;;;;;24.13;16.57;;;-4.20;99.90;;;-7.64;100.00;100818.91;4965160;28;100779;-64
2021/01/18 04:25:18;;;;;;;24.57;16.77;;;-4.30;99.90;;;-7.56;100.00;100825.72;4965354;28;100222;-63
2021/01/18 04:27:47;;;;;;;25.00;17.20;;;-4.20;99.90;;;-7.59;100.00;100812.78;4965196;28;100321;-66
2021/01/18 04:30:15;;;;;;;24.50;16.90;;;-4.30;99.90;;;-7.64;100.00;100802.47;4965307;28;100406;-66
2021/01/18 04:32:42;;;;;;;27.63;18.00;;;-4.20;99.90;;;-7.49;100.00;100806.50;4965079;28;101622;-66
2021/01/18 04:35:10;;;;;;;24.47;17.43;;;-4.10;99.90;;;-7.51;100.00;100801.31;4963810;28;100665;-63
2021/01/18 04:37:37;;;;;;;26.93;18.90;;;-4.20;99.90;;;-7.38;100.00;100794.97;4965836;28;100411;-64
2021/01/18 04:40:06;;;;;;;30.17;21.40;;;-4.40;99.90;;;-7.30;100.00;100794.81;4964686;28;100147;-65
2021/01/18 04:42:33;;;;;;;39.30;25.53;;;-4.10;99.90;;;-7.35;100.00;100799.25;4964036;28;101197;-64
2021/01/18 04:45:00;;;;;;;31.77;20.70;;;-4.30;99.90;;;-7.25;100.00;100796.41;4980155;28;104039;-65
2021/01/18 04:47:27;;;;;;;25.17;18.23;;;-4.10;99.90;;;-7.32;100.00;100801.78;4979751;28;100260;-65
2021/01/18 04:49:56;;;;;;;24.80;18.20;;;-4.20;99.90;;;-7.23;100.00;100805.94;4964638;28;100411;-64
2021/01/18 04:52:38;;;;;;;31.53;19.97;;;-4.20;99.90;;;-7.18;100.00;100794.53;4963395;28;100954;-65
2021/01/18 04:55:19;;;;;;;28.93;18.20;;;-4.20;99.90;;;-7.15;100.00;100804.00;4964930;28;100496;-64
2021/01/18 04:57:58;;;;;;;25.67;17.30;;;-4.10;99.90;;;-7.19;100.00;100802.38;4965053;28;100539;-66
2021/01/18 05:00:41;;;;;;;23.10;17.10;;;-4.00;99.90;;;-7.27;100.00;100800.78;4963803;28;100361;-65
2021/01/18 05:03:10;;;;;;;23.33;16.33;;;-3.90;99.90;;;-7.18;100.00;100796.28;4964380;28;100708;-65
2021/01/18 05:06:31;;;;;;;25.10;17.90;;;-4.20;99.90;;;-7.12;100.00;100801.34;4964104;28;101213;-65
2021/01/18 05:09:33;;;;;;;26.67;17.60;;;-4.10;99.90;;;-7.20;100.00;100800.66;4945281;28;100243;-66
2021/01/18 05:12:00;;;;;;;22.87;16.63;;;-4.00;99.90;;;-7.21;100.00;100804.16;4958857;28;100553;-67
2021/01/18 05:14:27;;;;;;;25.10;16.67;;;-4.10;99.90;;;-7.17;100.00;100798.00;4963822;28;101437;-66
2021/01/18 05:16:56;;;;;;;25.07;16.73;;;-4.10;99.90;;;-7.09;100.00;100803.88;4964146;28;100343;-66
2021/01/18 05:19:25;;;;;;;25.33;16.40;;;-4.10;99.90;;;-7.00;100.00;100804.50;4964285;28;100210;-64
2021/01/18 05:21:53;;;;;;;22.37;16.13;;;-4.10;99.90;;;-6.87;100.00;100805.09;4964442;28;100228;-66
2021/01/18 05:24:20;;;;;;;25.13;17.53;;;-4.10;99.90;;;-6.88;100.00;100808.56;4964049;28;100915;-66
2021/01/18 05:27:08;;;;;;;24.53;16.83;;;-4.10;99.90;;;-6.97;100.00;100806.19;4963365;28;100681;-65
2021/01/18 05:29:36;;;;;;;24.73;17.00;;;-4.00;99.90;;;-6.99;100.00;100806.22;4979372;28;100162;-65
2021/01/18 05:32:19;;;;;;;22.97;16.57;;;-3.90;99.90;;;-6.98;100.00;100807.09;4964104;28;100501;-64
2021/01/18 05:34:45;;;;;;;26.17;17.40;;;-3.90;99.90;;;-6.97;100.00;100811.41;4978263;28;103928;-63
2021/01/18 05:37:13;;;;;;;22.17;15.83;;;-3.70;99.90;;;-6.76;100.00;100816.09;4964035;28;100440;-64
2021/01/18 05:39:40;;;;;;;28.83;16.73;;;-4.00;99.90;;;-6.88;100.00;100813.78;4963988;28;100203;-64
2021/01/18 05:42:20;;;;;;;24.13;17.23;;;-3.90;99.90;;;-6.82;100.00;100815.41;4964374;28;100465;-66
2021/01/18 05:44:47;;;;;;;26.03;16.97;;;-3.90;99.90;;;-6.72;100.00;100809.94;4963476;28;101262;-63
2021/01/18 05:47:15;;;;;;;25.40;17.67;;;-3.70;99.90;;;-6.78;100.00;100815.25;4962681;28;100831;-67
2021/01/18 05:49:43;;;;;;;21.80;15.63;;;-3.70;99.90;;;-6.83;100.00;100817.13;4963494;28;99992;-64
2021/01/18 05:52:27;;;;;;;25.73;17.13;;;-3.60;99.90;;;-6.75;100.00;100812.59;4961692;28;100281;-64
2021/01/18 05:55:16;;;;;;;25.10;16.50;;;-3.50;99.90;;;-6.62;100.00;100815.75;4961902;28;101384;-64
2021/01/18 05:57:49;;;;;;;24.30;17.60;;;-3.60;99.90;;;-6.54;100.00;100817.28;4961280;27;100462;-66
2021/01/18 06:00:29;;;;;;;26.47;17.30;;;-3.10;99.90;;;-6.50;100.00;100801.59;4944830;28;100098;-64
2021/01/18 06:02:56;;;;;;;26.73;17.87;;;-3.50;99.90;;;-6.40;100.00;100810.88;4963646;28;100263;-66
2021/01/18 06:05:34;;;;;;;30.20;19.03;;;-3.50;99.90;;;-6.25;100.00;100811.34;4964816;28;101487;-63
2021/01/18 06:08:14;;;;;;;25.43;18.10;;;-3.50;99.90;;;-6.29;100.00;100801.88;4967288;28;100327;-66
2021/01/18 06:10:41;;;;;;;26.40;19.43;;;-3.40;99.90;;;-6.26;100.00;100808.75;4966882;28;100410;-65
2021/01/18 06:13:19;;;;;;;26.33;17.87;;;-3.40;99.90;;;-6.08;100.00;100805.69;4967148;28;100092;-65
2021/01/18 06:15:46;;;;;;;23.43;17.33;;;-3.30;99.90;;;-6.08;100.00;100804.84;4967831;28;100904;-65
2021/01/18 06:18:14;;;;;;;25.60;18.33;;;-2.30;99.90;;;-6.09;100.00;100811.78;4967316;28;100278;-66
2021/01/18 06:20:43;;;;;;;26.30;17.73;;;-3.20;99.90;;;-6.12;100.00;100806.66;4967416;28;100246;-65
2021/01/18 06:23:11;;;;;;;25.20;17.57;;;-3.20;99.90;;;-6.01;100.00;100801.16;4967120;28;100233;-66
2021/01/18 06:25:39;;;;;;;27.00;18.30;;;-3.10;99.90;;;-6.02;100.00;100804.66;4966389;28;101135;-64
2021/01/18 06:28:27;;;;;;;25.77;17.63;;;-2.90;99.90;;;-6.19;100.00;100805.97;4967341;28;100497;-65
2021/01/18 06:30:59;;;;;;;23.10;16.17;;;-2.90;99.90;;;-6.15;100.00;100809.34;4966846;28;99969;-65
2021/01/18 06:33:43;;;;;;;23.90;16.90;;;-3.30;99.90;;;-6.02;100.00;100808.13;4967034;28;100211;-65
2021/01/18 06:36:17;;;;;;;19.53;13.60;;;-2.90;99.90;;;-5.59;100.00;100806.91;4965901;28;100559;-66
2021/01/18 06:38:51;;;;;;;25.93;17.03;;;-2.80;99.90;;;-5.75;100.00;100813.44;4966582;28;100882;-66
2021/01/18 06:41:23;;;;;;;23.53;16.17;;;-3.00;99.90;;;-5.45;100.00;100818.66;4965859;28;100191;-64
2021/01/18 06:43:50;;;;;;;28.27;18.00;;;-2.90;99.90;;;-5.46;100.00;100813.47;4967000;28;100198;-65
2021/01/18 06:46:20;;;;;;;28.13;18.13;;;-2.90;99.90;;;-5.62;100.00;100810.44;4966214;28;101707;-65
2021/01/18 06:48:50;;;;;;;28.07;19.13;;;-2.90;99.90;;;-5.49;100.00;100816.16;4966338;28;101294;-64
2021/01/18 06:51:19;;;;;;;24.50;17.50;;;-2.70;99.90;;;-5.38;100.00;100816.69;4966605;28;100515;-65
2021/01/18 06:53:48;;;;;;;28.30;18.67;;;-2.80;99.90;;;-5.15;100.00;100819.47;4966980;28;100232;-65
2021/01/18 06:56:52;;;;;;;26.73;18.57;;;-2.70;99.90;;;-5.09;100.00;100826.28;4966528;28;100575;-65
2021/01/18 06:59:38;;;;;;;28.60;19.77;;;-2.60;99.90;;;-5.04;100.00;100831.34;4966715;28;100370;-64
2021/01/18 07:02:23;;;;;;;29.40;19.33;;;-2.60;99.90;;;-4.88;100.00;100815.16;4966136;28;100173;-65
2021/01/18 07:04:51;;;;;;;29.40;18.73;;;-2.40;99.90;;;-4.93;100.00;100821.41;4966791;28;100007;-65
2021/01/18 07:07:26;;;;;;;29.53;19.53;;;-2.60;99.90;;;-5.40;100.00;100805.44;4966564;28;101419;-65
2021/01/18 07:09:58;;;;;;;30.23;19.40;;;-2.40;99.90;;;-5.12;100.00;100823.75;4965930;28;100399;-63
2021/01/18 07:12:27;;;;;;;26.27;17.03;;;-2.40;99.90;;;-4.99;100.00;100822.47;4966485;28;100164;-65
2021/01/18 07:14:59;;;;;;;23.23;16.20;;;-2.30;99.90;;;-4.71;100.00;100820.72;4965329;28;100251;-65
2021/01/18 07:17:55;;;;;;;27.23;19.23;;;-2.40;99.90;;;-4.90;100.00;100826.53;4965984;28;101598;-62
2021/01/18 07:20:25;;;;;;;32.27;20.60;;;-2.30;99.90;;;-4.97;100.00;100820.69;4959121;28;102211;-66
2021/01/18 07:23:20;;;;;;;30.93;21.93;;;-2.20;99.90;;;-5.00;100.00;100820.75;4965966;28;100150;-63
2021/01/18 07:25:49;;;;;;;32.73;22.37;;;-2.10;99.90;;;-5.06;100.00;100828.75;4967175;28;100247;-63
2021/01/18 07:28:20;;;;;;;29.33;20.50;;;-2.20;99.90;;;-4.86;100.00;100829.03;4980184;28;103540;-63
2021/01/18 07:30:49;;;;;;;29.60;20.60;;;-2.20;99.90;;;-4.84;100.00;100826.38;4965670;28;101356;-63
2021/01/18 07:33:17;;;;;;;32.33;22.47;;;-2.20;99.90;;;-4.91;100.00;100827.44;4966690;28;100165;-65
2021/01/18 07:35:46;;;;;;;31.43;20.67;;;-2.00;99.90;;;-5.14;100.00;100823.78;4965852;28;100422;-61
2021/01/18 07:38:14;;;;;;;31.67;20.17;;;-2.00;99.90;;;-5.20;100.00;100823.13;4965607;28;101581;-63
2021/01/18 07:41:02;;;;;;;28.40;19.40;;;-2.00;99.90;;;-5.06;100.00;100837.44;4965391;28;101544;-63
2021/01/18 07:43:33;;;;;;;31.00;20.90;;;-2.10;99.90;;;-5.10;100.00;100835.84;4965814;28;100182;-62
2021/01/18 07:46:40;;;;;;;33.30;23.03;;;-2.20;99.90;;;-5.10;100.00;100837.59;4966223;28;100177;-65
2021/01/18 07:49:35;;;;;;;32.63;21.87;;;-2.20;99.90;;;-5.09;100.00;100826.28;4945605;28;100246;-63
2021/01/18 07:52:27;;;;;;;33.97;22.90;;;-2.10;99.90;;;-5.08;100.00;100818.41;4952129;28;100464;-62
2021/01/18 07:54:57;;;;;;;39.10;26.93;;;-2.10;99.90;;;-5.02;100.00;100825.16;4965048;28;99894;-62
2021/01/18 07:57:29;;;;;;;31.70;21.97;;;-2.20;99.90;;;-4.94;100.00;100825.78;4965264;28;100350;-63
2021/01/18 08:00:36;;;;;;;33.90;23.70;;;-1.40;99.90;;;-4.59;100.00;100842.97;4965282;28;100615;-62
2021/01/18 08:03:25;;;;;;;41.67;27.37;;;-2.10;99.90;;;-4.68;100.00;100843.25;4965160;28;100360;-62
2021/01/18 08:06:09;;;;;;;36.57;24.67;;;-2.00;99.90;;;-4.76;100.00;100840.03;4965219;28;100173;-62
2021/01/18 08:08:37;;;;;;;38.77;26.30;;;-1.90;99.90;;;-4.85;100.00;100838.56;4965269;28;100400;-63
2021/01/18 08:11:07;;;;;;;30.30;20.53;;;-1.90;99.90;;;-4.44;100.00;100845.06;4965138;28;101360;-65
2021/01/18 08:13:55;;;;;;;34.67;24.07;;;-1.90;99.90;;;-4.28;100.00;100842.81;4965886;28;100485;-62
2021/01/18 08:16:42;;;;;;;37.03;25.27;;;-1.90;99.90;;;-4.31;100.00;100832.44;4965767;27;100121;-62
2021/01/18 08:19:26;;;;;;;38.50;24.40;;;-1.80;99.90;;;-4.40;100.00;100838.84;4946693;28;100157;-63
2021/01/18 08:22:00;;;;;;;37.67;24.83;;;-1.60;99.90;;;-4.51;100.00;100840.94;4963616;28;100212;-62
2021/01/18 08:24:53;;;;;;;37.43;25.47;;;-1.60;99.90;;;-4.54;100.00;100841.03;4965886;27;100451;-62
2021/01/18 08:27:56;;;;;;;35.53;23.90;;;-1.50;99.90;;;-4.56;100.00;100837.63;4965932;28;100275;-62
2021/01/18 08:30:37;;;;;;;34.50;22.90;;;-0.70;99.90;;;-4.48;100.00;100833.03;4921867;28;100225;-63
2021/01/18 08:33:24;;;;;;;35.17;23.33;;;-1.50;99.90;;;-4.57;100.00;100830.69;4921072;28;100302;-62
2021/01/18 08:35:54;;;;;;;33.33;23.50;;;-1.50;99.90;;;-4.52;100.00;100826.19;4951025;28;100542;-62
2021/01/18 08:38:28;;;;;;;30.67;21.90;;;-1.60;99.90;;;-4.41;100.00;100824.06;4965075;28;100493;-62
2021/01/18 08:41:08;;;;;;;38.30;23.50;;;-1.60;99.90;;;-4.35;100.00;100821.28;4965262;28;100033;-62
2021/01/18 08:43:50;;;;;;;38.87;25.43;;;-0.50;99.90;;;-4.15;100.00;100815.34;4965035;28;100356;-62
2021/01/18 08:46:33;;;;;;;56.87;36.73;;;-1.60;99.90;;;-4.06;100.00;100822.88;4964778;28;100548;-62
2021/01/18 08:49:25;;;;;;;47.37;29.67;;;-1.50;99.90;;;-3.84;100.00;100824.75;4944863;28;100431;-61
2021/01/18 08:51:53;;;;;;;52.03;28.27;;;-1.50;99.90;;;-3.74;100.00;100818.28;4948354;28;100373;-63
2021/01/18 08:54:34;;;;;;;39.43;26.50;;;-1.40;99.90;;;-3.68;100.00;100816.28;4964424;28;101032;-62
2021/01/18 08:57:23;;;;;;;41.10;26.47;;;-1.40;99.90;;;-3.52;100.00;100819.19;4963772;27;100141;-62
2021/01/18 09:00:04;;;;;;;44.60;27.93;;;-1.40;99.90;;;-3.51;100.00;100831.38;4964579;28;100305;-62
2021/01/18 09:02:31;;;;;;;43.07;27.10;;;-1.20;99.90;;;-3.41;100.00;100832.75;4964165;28;100289;-62
2021/01/18 09:05:15;;;;;;;43.87;27.13;;;-1.30;99.90;;;-3.36;100.00;100833.44;4963943;28;100778;-62
2021/01/18 09:07:43;;;;;;;43.00;28.50;;;-1.10;99.90;;;-3.38;100.00;100831.78;4963808;28;102775;-63
2021/01/18 09:10:13;;;;;;;44.83;27.97;;;-1.10;99.90;;;-3.30;100.00;100830.56;4964712;28;100081;-62
2021/01/18 09:12:41;;;;;;;46.07;28.63;;;-1.00;99.90;;;-3.27;100.00;100834.84;4964868;28;100141;-62
2021/01/18 09:15:10;;;;;;;53.30;25.93;;;-0.90;99.90;;;-3.15;100.00;100834.38;4963616;28;101605;-63
2021/01/18 09:17:36;;;;;;;42.13;27.70;;;-0.90;99.90;;;-3.20;100.00;100831.06;4964580;28;100297;-62
2021/01/18 09:20:05;;;;;;;42.27;26.87;;;-0.90;99.90;;;-3.08;100.00;100834.97;4969952;28;100281;-63
2021/01/18 09:22:33;;;;;;;47.60;29.17;;;-0.70;99.90;;;-3.20;100.00;100825.84;4964790;28;100226;-62
2021/01/18 09:25:00;;;;;;;44.83;28.90;;;-0.80;99.90;;;-3.17;100.00;100819.63;4977717;28;101752;-62
2021/01/18 09:27:28;;;;;;;43.97;28.10;;;-0.60;99.90;;;-3.16;100.00;100818.72;4969813;28;100669;-63
2021/01/18 09:30:04;;;;;;;183.27;43.57;;;-0.60;99.90;;;-2.81;100.00;100809.50;4974454;28;99798;-63
2021/01/18 09:32:31;;;;;;;74.80;32.20;;;-0.60;99.90;;;-2.73;100.00;100813.53;4970415;28;100371;-63
2021/01/18 09:35:09;;;;;;;55.70;29.10;;;-0.50;99.90;;;-2.75;100.00;100814.50;4964264;28;101799;-62
2021/01/18 09:37:40;;;;;;;47.20;29.80;;;-0.40;99.90;;;-2.92;100.00;100809.91;4964175;28;101537;-61
2021/01/18 09:40:08;;;;;;;44.63;29.07;;;-0.50;99.90;;;-2.92;100.00;100809.91;4966745;28;100189;-61
2021/01/18 09:42:36;;;;;;;89.33;33.83;;;-0.50;99.90;;;-2.68;100.00;100813.34;4967844;28;100414;-61
2021/01/18 09:45:03;;;;;;;50.93;30.60;;;-0.40;99.90;;;-2.79;100.00;100807.66;4967772;28;100818;-61
2021/01/18 09:47:32;;;;;;;48.83;30.07;;;-0.40;99.90;;;-2.70;100.00;100813.38;4967632;28;100291;-62
2021/01/18 09:50:07;;;;;;;47.93;29.87;;;-0.40;99.90;;;-2.61;100.00;100809.56;4968173;28;100378;-64
2021/01/18 09:52:39;;;;;;;47.27;30.20;;;-0.40;99.90;;;-2.63;100.00;100807.00;4968412;28;100082;-60
2021/01/18 09:55:11;;;;;;;50.63;31.77;;;-0.30;99.90;;;-2.58;100.00;100799.78;4966609;28;100710;-63
2021/01/18 09:57:42;;;;;;;49.90;29.77;;;-0.30;99.90;;;-2.56;100.00;100800.59;4968289;28;100197;-61
2021/01/18 10:00:10;;;;;;;50.17;29.60;;;-0.10;99.90;;;-2.36;100.00;100804.16;4967082;28;100042;-61
2021/01/18 10:02:43;;;;;;;51.63;31.87;;;-0.10;99.90;;;-2.36;100.00;100801.56;4963462;28;100048;-61
2021/01/18 10:05:14;;;;;;;56.23;32.30;;;-0.10;99.90;;;-2.46;100.00;100795.81;4966667;28;100800;-61
2021/01/18 10:07:49;;;;;;;48.20;29.77;;;0.50;99.90;;;-2.38;100.00;100792.91;4946847;28;100571;-63
2021/01/18 10:10:15;;;;;;;64.97;31.53;;;-0.10;99.90;;;-2.33;100.00;100798.78;4956000;28;100343;-62
2021/01/18 10:12:50;;;;;;;53.03;32.77;;;0.00;99.90;;;-2.41;100.00;100793.00;4967407;28;100241;-63